Time;durP1;ratioP1;P1;durP2;ratioP2;P2;SDS_P1;SDS_P2;PMS_P1;PMS_P2;Temp;Humidity;BMP_temperature;BMP_pressure;BME280_temperature;BME280_humidity;BME280_pressure;Samples;Min_cycle;Max_cycle;Signal;HPM_P1;HPM_P2
2022/01/02 00:01:59;;;;;;;;;27.00;25.33;;;;;11.80;71.90;101755.47;5081671;27;45506;-65
2022/01/02 00:04:28;;;;;;;;;34.00;30.33;;;;;11.75;71.59;101746.84;5087943;27;45474;-65
2022/01/02 00:06:54;;;;;;;;;30.33;28.00;;;;;11.76;72.04;101749.47;5083052;27;45428;-66
2022/01/02 00:09:19;;;;;;;;;34.67;29.67;;;;;11.79;71.54;101751.03;5081574;27;45981;-65
2022/01/02 00:11:46;;;;;;;;;31.33;25.00;;;;;11.77;72.41;101748.44;5082600;28;45458;-65
2022/01/02 00:14:17;;;;;;;;;32.67;28.33;;;;;11.78;72.44;101743.84;5090088;27;45626;-66
2022/01/02 00:16:42;;;;;;;;;28.67;25.67;;;;;11.71;72.29;101741.63;5082887;27;45274;-67
2022/01/02 00:19:19;;;;;;;;;32.33;29.33;;;;;11.71;72.24;101749.78;5072355;27;46328;-66
2022/01/02 00:21:46;;;;;;;;;28.00;27.33;;;;;11.73;72.09;101752.41;5082147;27;45469;-65
2022/01/02 00:24:19;;;;;;;;;30.33;26.67;;;;;11.70;72.30;101753.50;5072399;28;45741;-64
2022/01/02 00:26:48;;;;;;;;;26.67;26.67;;;;;11.79;72.48;101754.63;5082857;27;45464;-65
2022/01/02 00:29:14;;;;;;;;;23.33;23.00;;;;;11.81;71.99;101754.50;5073292;27;46120;-66
2022/01/02 00:31:41;;;;;;;;;26.33;21.67;;;;;11.85;71.75;101745.06;5082243;27;45460;-66
2022/01/02 00:34:08;;;;;;;;;29.67;29.00;;;;;11.85;71.98;101745.06;5072604;27;45349;-66
2022/01/02 00:36:34;;;;;;;;;24.33;23.00;;;;;11.82;71.87;101751.66;5084704;28;45681;-66
2022/01/02 00:39:00;;;;;;;;;31.67;28.67;;;;;11.83;72.23;101747.94;5080269;27;45403;-66
2022/01/02 00:41:32;;;;;;;;;26.00;24.00;;;;;11.84;71.76;101738.75;5079833;27;45367;-65
2022/01/02 00:44:07;;;;;;;;;26.00;23.33;;;;;11.78;71.82;101736.56;5084003;27;45212;-66
2022/01/02 00:46:35;;;;;;;;;29.33;26.00;;;;;11.75;72.24;101730.53;5074611;28;45682;-66
2022/01/02 00:49:04;;;;;;;;;29.67;26.67;;;;;11.74;72.43;101731.47;5083396;27;46816;-66
2022/01/02 00:51:49;;;;;;;;;24.33;23.33;;;;;11.80;72.26;101737.28;5094188;27;45376;-66
2022/01/02 00:54:16;;;;;;;;;27.00;26.67;;;;;11.85;72.18;101739.59;5084549;27;45325;-67
2022/01/02 00:56:47;;;;;;;;;31.00;25.00;;;;;11.86;71.76;101747.66;5076863;27;45553;-66
2022/01/02 01:00:02;;;;;;;;;30.33;27.67;;;;;11.84;71.96;101746.91;5080976;28;45417;-65
2022/01/02 01:02:33;;;;;;;;;24.67;22.67;;;;;11.86;71.65;101736.75;5059916;28;45383;-68
2022/01/02 01:05:02;;;;;;;;;27.00;24.67;;;;;11.88;72.10;101725.75;5081476;27;45298;-68
2022/01/02 01:07:28;;;;;;;;;27.33;24.33;;;;;11.86;71.59;101704.09;5085154;27;45370;-66
2022/01/02 01:09:56;;;;;;;;;32.00;28.33;;;;;11.86;71.88;101692.31;5083930;28;47033;-68
2022/01/02 01:12:22;;;;;;;;;27.67;25.67;;;;;11.83;71.60;101673.56;5084633;27;45362;-66
2022/01/02 01:14:49;;;;;;;;;26.67;22.67;;;;;11.81;71.40;101684.56;5080833;27;45436;-66
2022/01/02 01:17:15;;;;;;;;;25.67;23.00;;;;;11.80;71.37;101701.91;5103104;27;45401;-66
2022/01/02 01:19:42;;;;;;;;;24.67;23.67;;;;;11.78;72.00;101694.84;5075680;27;46265;-67
2022/01/02 01:22:08;;;;;;;;;14.33;14.33;;;;;11.76;72.14;101680.53;5076721;27;45767;-66
2022/01/02 01:24:35;;;;;;;;;25.00;21.67;;;;;11.72;72.16;101663.53;5075878;27;45327;-66
2022/01/02 01:27:04;;;;;;;;;30.67;27.67;;;;;11.79;71.91;101664.78;5084891;27;45331;-66
2022/01/02 01:29:34;;;;;;;;;26.00;21.67;;;;;11.82;71.87;101669.09;5076435;27;45620;-67
2022/01/02 01:32:09;;;;;;;;;26.67;24.67;;;;;11.81;71.37;101678.25;5084537;28;45385;-66
2022/01/02 01:34:35;;;;;;;;;29.00;24.00;;;;;11.77;71.53;101687.66;5084547;27;45380;-66
2022/01/02 01:37:01;;;;;;;;;24.00;23.00;;;;;11.81;71.60;101678.25;5084844;27;45315;-66
2022/01/02 01:39:27;;;;;;;;;29.67;25.67;;;;;11.84;71.55;101669.81;5076924;27;45399;-66
2022/01/02 01:41:54;;;;;;;;;23.67;22.00;;;;;11.84;71.24;101661.63;5087068;27;45585;-66
2022/01/02 01:44:28;;;;;;;;;25.67;24.67;;;;;11.75;71.28;101649.72;5080286;27;45469;-67
2022/01/02 01:46:57;;;;;;;;;24.67;23.33;;;;;11.83;71.73;101665.38;5089147;27;45616;-67
2022/01/02 01:49:30;;;;;;;;;22.00;22.00;;;;;11.80;71.27;101665.63;5080005;27;45532;-67
2022/01/02 01:51:55;;;;;;;;;29.00;25.00;;;;;11.79;71.76;101663.91;5091750;27;45461;-67
2022/01/02 01:54:21;;;;;;;;;28.33;23.67;;;;;11.79;71.84;101655.72;5082046;27;45427;-67
2022/01/02 01:56:48;;;;;;;;;36.00;32.25;;;;;11.78;71.28;101637.66;5092196;27;45572;-67
2022/01/02 01:59:16;;;;;;;;;29.33;27.33;;;;;11.77;71.78;101639.53;5084033;27;46181;-66
2022/01/02 02:01:42;;;;;;;;;27.67;26.33;;;;;11.76;71.67;101637.84;5091962;27;45417;-66
2022/01/02 02:04:08;;;;;;;;;27.67;23.67;;;;;11.74;71.57;101636.19;5085983;27;45469;-66
2022/01/02 02:06:35;;;;;;;;;25.00;24.00;;;;;11.70;71.68;101639.19;5085125;27;45539;-67
2022/01/02 02:09:02;;;;;;;;;26.33;24.67;;;;;11.67;71.56;101638.59;5086802;27;45616;-64
2022/01/02 02:11:29;;;;;;;;;25.33;23.67;;;;;11.64;71.71;101634.28;5092777;27;45444;-64
2022/01/02 02:13:55;;;;;;;;;25.50;24.00;;;;;11.64;72.16;101634.28;5079369;27;45385;-65
2022/01/02 02:16:21;;;;;;;;;21.67;21.00;;;;;11.67;72.18;101634.00;5073883;28;45614;-65
2022/01/02 02:18:47;;;;;;;;;28.33;26.67;;;;;11.66;72.11;101626.84;5084677;27;46877;-65
2022/01/02 02:21:12;;;;;;;;;28.00;23.33;;;;;11.64;71.80;101617.94;5081223;28;45588;-65
2022/01/02 02:23:38;;;;;;;;;25.33;20.67;;;;;11.66;72.56;101609.66;5078833;27;45419;-67
2022/01/02 02:26:03;;;;;;;;;27.33;25.33;;;;;11.67;72.13;101606.78;5080647;28;45357;-66
2022/01/02 02:28:28;;;;;;;;;22.00;22.00;;;;;11.66;71.90;101605.06;5083347;27;46825;-65
2022/01/02 02:30:54;;;;;;;;;23.00;18.33;;;;;11.66;71.93;101594.19;5084009;27;45270;-66
2022/01/02 02:33:20;;;;;;;;;28.33;23.33;;;;;11.68;71.81;101596.78;5077693;27;45444;-66
2022/01/02 02:35:48;;;;;;;;;24.00;22.33;;;;;11.61;72.07;101591.00;5079838;27;45609;-66
2022/01/02 02:38:16;;;;;;;;;21.67;20.67;;;;;11.65;71.80;101595.16;5078704;27;45517;-66
2022/01/02 02:40:42;;;;;;;;;22.00;20.67;;;;;11.62;71.93;101594.56;5072360;27;45377;-66
2022/01/02 02:51:33;;;;;;;;;22.33;21.67;;;;;11.69;71.34;101561.22;5072377;28;45314;-66
2022/01/02 02:53:59;;;;;;;;;19.00;17.67;;;;;11.66;71.97;101556.06;5082803;27;45226;-66
2022/01/02 02:56:27;;;;;;;;;20.00;17.00;;;;;11.73;71.53;101555.53;5085439;27;45332;-66
2022/01/02 02:58:56;;;;;;;;;25.00;19.00;;;;;11.72;71.52;101543.75;5086670;27;45392;-66
2022/01/02 03:01:23;;;;;;;;;19.67;17.00;;;;;11.72;71.42;101546.50;5086501;27;45276;-66
2022/01/02 03:03:49;;;;;;;;;19.00;17.67;;;;;11.72;71.28;101543.75;5086370;27;45361;-66
2022/01/02 03:06:16;;;;;;;;;22.00;19.00;;;;;11.73;71.18;101545.50;5083688;28;45583;-65
2022/01/02 03:08:43;;;;;;;;;21.67;16.67;;;;;11.75;71.27;101551.72;5082448;27;46306;-66
2022/01/02 03:11:13;;;;;;;;;19.00;19.00;;;;;11.70;71.14;101557.50;5096722;27;45401;-66
2022/01/02 03:13:39;;;;;;;;;23.00;20.33;;;;;11.71;70.99;101553.78;5084176;27;45613;-66
2022/01/02 03:16:04;;;;;;;;;19.67;18.33;;;;;11.68;70.66;101548.63;5078286;27;45603;-66
2022/01/02 03:18:30;;;;;;;;;24.33;19.00;;;;;11.71;70.59;101542.03;5078704;27;45426;-66
2022/01/02 03:20:55;;;;;;;;;19.00;17.00;;;;;11.77;71.45;101535.22;5078000;28;45486;-65
2022/01/02 03:23:20;;;;;;;;;16.67;15.00;;;;;11.75;70.89;101543.53;5080095;27;45473;-66
2022/01/02 03:25:46;;;;;;;;;16.67;15.00;;;;;11.73;70.63;101550.06;5077208;28;45309;-66
2022/01/02 03:28:11;;;;;;;;;23.00;21.00;;;;;11.77;70.46;101563.28;5082370;27;45378;-66
2022/01/02 03:30:37;;;;;;;;;17.00;17.00;;;;;11.82;70.74;101554.75;5075053;28;45325;-67
2022/01/02 03:33:02;;;;;;;;;21.00;18.67;;;;;11.81;71.12;101569.34;5081144;28;45500;-67
2022/01/02 03:35:28;;;;;;;;;16.67;16.33;;;;;11.83;70.69;101559.19;5079417;27;45293;-67
2022/01/02 03:37:54;;;;;;;;;21.67;18.33;;;;;11.85;70.47;101559.91;5076453;28;46580;-67
2022/01/02 03:40:19;;;;;;;;;21.00;18.00;;;;;11.86;70.35;101558.91;5071699;28;45421;-66
2022/01/02 03:42:45;;;;;;;;;19.33;17.00;;;;;11.84;70.84;101552.72;5089039;27;45136;-66
2022/01/02 03:45:11;;;;;;;;;21.67;18.33;;;;;11.87;70.61;101557.91;5071897;28;45374;-67
2022/01/02 03:47:37;;;;;;;;;12.33;11.00;;;;;11.89;70.45;101558.63;5089250;27;46554;-66
2022/01/02 03:50:04;;;;;;;;;16.33;16.00;;;;;11.87;70.79;101564.22;5075334;27;45341;-67
2022/01/02 03:52:30;;;;;;;;;14.33;13.33;;;;;11.84;70.88;101542.69;5091656;27;45316;-67
2022/01/02 03:54:56;;;;;;;;;16.67;16.33;;;;;11.91;70.65;101543.00;5076361;27;45373;-66
2022/01/02 03:57:22;;;;;;;;;20.67;17.00;;;;;11.94;70.39;101526.41;5093600;27;46213;-67
2022/01/02 03:59:47;;;;;;;;;18.00;16.00;;;;;11.98;70.75;101527.88;5076850;27;45409;-67
2022/01/02 04:02:13;;;;;;;;;15.33;15.33;;;;;11.96;70.33;101525.28;5094489;27;45801;-66
2022/01/02 04:04:38;;;;;;;;;20.00;15.00;;;;;11.96;70.63;101519.81;5082682;27;45413;-66
2022/01/02 04:07:04;;;;;;;;;16.33;15.33;;;;;11.96;71.11;101505.34;5082208;27;45364;-67
2022/01/02 04:09:30;;;;;;;;;14.00;13.33;;;;;11.97;70.46;101510.66;5079492;27;45412;-67
2022/01/02 04:11:56;;;;;;;;;19.33;16.33;;;;;11.98;70.36;101516.97;5098740;27;45333;-67
2022/01/02 04:14:22;;;;;;;;;16.33;15.67;;;;;11.98;70.51;101506.06;5084840;27;47997;-67
2022/01/02 04:16:47;;;;;;;;;16.67;16.00;;;;;11.92;70.14;101518.38;5098642;27;46429;-67
2022/01/02 04:19:12;;;;;;;;;18.67;16.00;;;;;11.94;70.26;101519.09;5096199;27;45304;-67
2022/01/02 04:21:38;;;;;;;;;20.67;17.67;;;;;11.96;70.19;101494.44;5086227;27;45280;-67
2022/01/02 04:24:03;;;;;;;;;19.33;16.33;;;;;11.93;69.85;101500.16;5077575;28;45602;-67
2022/01/02 04:26:29;;;;;;;;;16.00;16.00;;;;;11.95;69.79;101490.88;5085167;28;47681;-67
2022/01/02 04:28:54;;;;;;;;;12.67;12.33;;;;;11.99;69.43;101496.88;5079904;27;45420;-67
2022/01/02 04:31:19;;;;;;;;;19.00;15.33;;;;;12.00;69.19;101504.06;5083908;28;45500;-67
2022/01/02 04:33:44;;;;;;;;;19.00;18.00;;;;;12.02;70.00;101502.06;5079922;27;45619;-66
2022/01/02 04:36:10;;;;;;;;;24.33;16.67;;;;;12.02;69.45;101497.47;5081128;28;46011;-67
2022/01/02 04:38:37;;;;;;;;;15.67;15.00;;;;;12.07;69.60;101494.31;5080855;27;45857;-66
2022/01/02 04:41:02;;;;;;;;;16.00;16.00;;;;;12.05;69.32;101467.22;5076135;27;45320;-66
2022/01/02 04:43:28;;;;;;;;;18.33;16.33;;;;;12.08;68.99;101474.25;5089428;27;45507;-67
2022/01/02 04:45:53;;;;;;;;;18.33;15.67;;;;;12.10;68.84;101461.38;5075533;27;47628;-67
2022/01/02 04:48:19;;;;;;;;;16.00;15.00;;;;;12.07;68.58;101465.22;5089034;27;45461;-67
2022/01/02 04:50:44;;;;;;;;;15.00;15.00;;;;;12.07;68.68;101467.94;5078611;27;45883;-67
2022/01/02 04:53:10;;;;;;;;;15.00;15.00;;;;;12.12;69.03;101473.00;5096174;27;45423;-67
2022/01/02 04:55:35;;;;;;;;;21.00;18.33;;;;;12.15;69.09;101456.34;5079567;27;46251;-67
2022/01/02 04:58:01;;;;;;;;;15.00;14.33;;;;;12.15;68.47;101456.34;5097220;27;45210;-67
2022/01/02 05:00:26;;;;;;;;;18.67;15.00;;;;;12.14;68.67;101438.28;5076015;28;45415;-67
2022/01/02 05:02:52;;;;;;;;;12.33;11.00;;;;;12.17;68.86;101429.84;5085300;27;45381;-67
2022/01/02 05:05:18;;;;;;;;;2.00;1.00;;;;;12.20;68.44;101429.53;5085394;27;46356;-67
2022/01/02 05:07:44;;;;;;;;;14.67;13.00;;;;;12.13;69.07;101411.22;5084621;27;45378;-67
2022/01/02 05:10:10;;;;;;;;;14.33;14.33;;;;;12.12;69.43;101410.34;5081226;27;45512;-67
2022/01/02 05:12:35;;;;;;;;;14.33;14.33;;;;;12.11;68.94;101441.31;5100808;27;45610;-67
2022/01/02 05:15:01;;;;;;;;;11.00;11.00;;;;;12.11;69.26;101427.69;5083313;27;46615;-67
2022/01/02 05:17:26;;;;;;;;;14.33;12.67;;;;;12.08;69.53;101447.88;5101586;27;45380;-67
2022/01/02 05:19:52;;;;;;;;;16.00;14.00;;;;;12.02;68.93;101442.13;5076096;27;45392;-67
2022/01/02 05:22:17;;;;;;;;;10.00;10.00;;;;;12.02;69.16;101442.13;5081315;27;45588;-67
2022/01/02 05:24:43;;;;;;;;;14.33;12.00;;;;;12.09;69.00;101460.50;5083656;28;47190;-66
2022/01/02 05:27:08;;;;;;;;;14.00;13.33;;;;;12.08;68.51;101439.72;5084677;27;45289;-67
2022/01/02 05:29:33;;;;;;;;;12.33;11.67;;;;;12.12;68.41;101431.28;5077526;27;45381;-67
2022/01/02 05:31:59;;;;;;;;;16.67;12.67;;;;;12.07;68.30;101420.78;5085874;27;45573;-67
2022/01/02 05:34:24;;;;;;;;;15.00;12.67;;;;;12.15;68.25;101426.38;5081922;27;47338;-67
2022/01/02 05:36:49;;;;;;;;;15.67;11.00;;;;;12.17;68.21;101431.69;5083673;27;45390;-67
2022/01/02 05:39:19;;;;;;;;;13.00;13.00;;;;;12.16;67.63;101428.09;5079580;27;46387;-66
2022/01/02 05:41:49;;;;;;;;;16.67;13.67;;;;;12.20;67.10;101437.72;5083313;27;45578;-67
2022/01/02 05:44:15;;;;;;;;;11.00;9.67;;;;;12.17;67.70;101438.00;5081449;27;47093;-67
2022/01/02 05:46:41;;;;;;;;;10.67;7.67;;;;;12.17;66.55;101418.06;5085283;27;45449;-66
2022/01/02 05:49:07;;;;;;;;;14.00;13.00;;;;;12.30;67.33;101408.63;5086446;27;45390;-67
2022/01/02 05:51:33;;;;;;;;;12.67;12.33;;;;;12.27;66.51;101425.22;5086046;27;45340;-67
2022/01/02 05:53:59;;;;;;;;;13.33;11.00;;;;;12.31;66.16;101437.59;5086556;27;47916;-67
2022/01/02 05:56:24;;;;;;;;;14.00;12.00;;;;;12.36;66.67;101431.69;5086266;27;45397;-67
2022/01/02 05:58:49;;;;;;;;;14.67;13.67;;;;;12.37;65.77;101434.28;5088369;27;45537;-67
2022/01/02 06:01:15;;;;;;;;;8.00;6.33;;;;;12.42;66.14;101433.84;5087262;27;45386;-67
2022/01/02 06:03:40;;;;;;;;;8.00;8.00;;;;;12.44;65.93;101443.59;5090261;27;45503;-67
2022/01/02 06:06:05;;;;;;;;;14.67;12.67;;;;;12.44;65.70;101427.25;5084679;27;45535;-64
2022/01/02 06:08:31;;;;;;;;;14.00;12.33;;;;;12.48;65.18;101428.72;5082522;28;45442;-66
2022/01/02 06:10:56;;;;;;;;;11.00;8.67;;;;;12.55;65.98;101417.22;5087934;27;45427;-66
2022/01/02 06:13:22;;;;;;;;;7.33;7.33;;;;;12.53;65.76;101433.72;5090936;27;46521;-66
2022/01/02 06:15:47;;;;;;;;;13.33;10.67;;;;;12.58;65.28;101436.00;5077350;28;45395;-66
2022/01/02 06:18:13;;;;;;;;;14.33;12.33;;;;;12.59;65.36;101421.34;5082703;27;45550;-66
2022/01/02 06:20:38;;;;;;;;;9.33;9.33;;;;;12.60;65.39;101421.22;5076807;28;45412;-66
2022/01/02 06:23:04;;;;;;;;;12.33;11.00;;;;;12.67;65.62;101407.88;5083052;27;45596;-65
2022/01/02 06:25:29;;;;;;;;;14.67;11.33;;;;;12.62;64.61;101407.47;5075107;27;45237;-66
2022/01/02 06:27:55;;;;;;;;;13.33;10.67;;;;;12.68;65.06;101406.88;5083956;27;45497;-66
2022/01/02 06:30:20;;;;;;;;;13.00;9.00;;;;;12.72;65.31;101427.38;5070693;28;45397;-66
2022/01/02 06:32:46;;;;;;;;;9.33;9.00;;;;;12.73;64.62;101421.78;5076329;28;45666;-66
2022/01/02 06:35:12;;;;;;;;;11.00;9.33;;;;;12.76;65.10;101420.63;5080707;28;45227;-66
2022/01/02 06:37:38;;;;;;;;;6.67;6.67;;;;;12.68;65.14;101436.84;5097187;27;45518;-66
2022/01/02 06:40:05;;;;;;;;;13.00;12.00;;;;;12.67;65.18;101441.44;5072878;28;45638;-66
2022/01/02 06:42:30;;;;;;;;;10.67;10.67;;;;;12.63;65.14;101464.56;5088205;27;45527;-65
2022/01/02 06:44:55;;;;;;;;;12.00;9.33;;;;;12.60;65.34;101464.84;5076544;28;45360;-66
2022/01/02 06:47:21;;;;;;;;;11.33;11.33;;;;;12.62;65.39;101470.16;5090034;27;45607;-66
2022/01/02 06:49:46;;;;;;;;;10.00;10.00;;;;;12.54;65.96;101448.19;5079066;27;45355;-66
2022/01/02 06:52:11;;;;;;;;;12.33;11.00;;;;;12.49;64.84;101449.47;5090129;27;47969;-66
2022/01/02 06:54:37;;;;;;;;;12.33;12.33;;;;;12.52;65.72;101450.19;5079111;28;45333;-65
2022/01/02 06:57:03;;;;;;;;;12.00;10.33;;;;;12.49;65.70;101468.56;5078400;28;45446;-66
2022/01/02 06:59:30;;;;;;;;;12.33;10.67;;;;;12.42;65.80;101461.09;5088725;27;45597;-65
2022/01/02 07:01:56;;;;;;;;;12.67;11.67;;;;;12.42;66.09;101470.13;5082434;28;47477;-65
2022/01/02 07:04:21;;;;;;;;;14.33;11.67;;;;;12.36;66.63;101458.94;5082566;27;45474;-65
2022/01/02 07:06:46;;;;;;;;;10.00;9.33;;;;;12.36;67.09;101456.22;5083846;27;45221;-66
2022/01/02 07:09:12;;;;;;;;;10.33;9.33;;;;;12.34;66.64;101463.69;5089537;27;45282;-66
2022/01/02 07:11:37;;;;;;;;;13.00;12.00;;;;;12.33;67.47;101465.56;5083447;27;45360;-65
2022/01/02 07:14:02;;;;;;;;;11.67;9.00;;;;;12.39;67.33;101464.97;5078223;28;45604;-65
2022/01/02 07:16:28;;;;;;;;;13.00;13.00;;;;;12.44;67.33;101449.06;5082054;28;45475;-65
2022/01/02 07:18:53;;;;;;;;;13.67;11.33;;;;;12.52;66.74;101451.06;5081813;28;45586;-66
2022/01/02 07:21:18;;;;;;;;;11.00;9.33;;;;;12.57;67.08;101451.47;5083323;27;45607;-65
2022/01/02 07:23:44;;;;;;;;;17.00;11.00;;;;;12.52;66.71;101455.66;5077435;27;45440;-66
2022/01/02 07:26:10;;;;;;;;;10.00;10.00;;;;;12.50;67.13;101453.06;5079389;28;45467;-66
2022/01/02 07:28:35;;;;;;;;;9.33;9.00;;;;;12.55;67.21;101456.25;5080920;27;45641;-66
2022/01/02 07:31:01;;;;;;;;;12.00;12.00;;;;;12.57;67.39;101465.13;5077817;28;46309;-65
2022/01/02 07:33:26;;;;;;;;;11.33;8.33;;;;;12.58;67.14;101449.63;5077837;28;45450;-65
2022/01/02 07:35:52;;;;;;;;;14.67;12.00;;;;;12.57;66.89;101447.91;5071511;27;45314;-65
2022/01/02 07:38:17;;;;;;;;;14.00;12.00;;;;;12.60;67.60;101453.06;5088696;27;45416;-66
2022/01/02 07:40:43;;;;;;;;;14.67;10.33;;;;;12.60;67.28;101463.97;5072475;27;45479;-66
2022/01/02 07:43:08;;;;;;;;;13.00;11.00;;;;;12.60;67.49;101462.13;5091687;27;45417;-65
2022/01/02 07:45:34;;;;;;;;;12.67;12.00;;;;;12.65;67.62;101464.41;5067611;27;45663;-66
2022/01/02 07:47:59;;;;;;;;;11.00;11.00;;;;;12.64;68.19;101465.44;5095416;27;45621;-65
2022/01/02 07:50:24;;;;;;;;;8.33;8.33;;;;;12.56;68.12;101463.41;5074900;27;46341;-65
2022/01/02 07:52:52;;;;;;;;;10.33;10.33;;;;;12.52;68.09;101477.47;5096545;27;45399;-66
2022/01/02 07:55:20;;;;;;;;;10.00;9.00;;;;;12.50;68.53;101488.50;5075562;27;45546;-65
2022/01/02 07:57:46;;;;;;;;;10.67;10.67;;;;;12.45;69.05;101477.16;5089988;27;45315;-66
2022/01/02 08:00:13;;;;;;;;;10.33;9.33;;;;;12.48;69.17;101493.25;5076816;27;45635;-66
2022/01/02 08:02:38;;;;;;;;;16.33;14.00;;;;;12.43;69.14;101495.53;5098018;27;45547;-66
2022/01/02 08:05:06;;;;;;;;;11.00;11.00;;;;;12.38;69.82;101506.88;5081231;28;45428;-66
2022/01/02 08:07:32;;;;;;;;;9.00;9.00;;;;;12.28;69.48;101486.91;5082539;27;45371;-66
2022/01/02 08:09:57;;;;;;;;;10.33;9.67;;;;;12.40;69.86;101517.63;5080900;28;47201;-66
2022/01/02 08:12:22;;;;;;;;;10.67;10.67;;;;;12.34;70.22;101524.50;5082112;27;45338;-67
2022/01/02 08:14:49;;;;;;;;;12.67;11.00;;;;;12.24;70.70;101533.66;5092036;27;45354;-66
2022/01/02 08:17:14;;;;;;;;;18.00;13.00;;;;;12.27;70.34;101536.13;5082267;27;45563;-67
2022/01/02 08:19:39;;;;;;;;;10.33;10.00;;;;;12.34;70.54;101543.59;5072886;27;45629;-67
2022/01/02 08:22:05;;;;;;;;;16.33;13.67;;;;;12.29;70.83;101537.66;5082383;27;45467;-66
2022/01/02 08:24:30;;;;;;;;;13.00;12.00;;;;;12.35;70.37;101545.28;5071881;27;45452;-67
2022/01/02 08:26:55;;;;;;;;;12.33;9.33;;;;;12.39;70.07;101544.03;5083218;27;45352;-67
2022/01/02 08:29:21;;;;;;;;;11.33;10.67;;;;;12.41;70.58;101547.47;5074381;27;45488;-67
2022/01/02 08:31:46;;;;;;;;;13.33;9.33;;;;;12.45;70.89;101538.00;5078024;28;45444;-67
2022/01/02 08:34:11;;;;;;;;;13.50;12.50;;;;;12.45;70.69;101548.91;5074537;28;45325;-67
2022/01/02 08:36:37;;;;;;;;;9.00;7.33;;;;;12.36;70.76;101549.72;5088794;27;45347;-67
2022/01/02 08:39:02;;;;;;;;;14.00;13.00;;;;;12.40;71.19;101548.47;5080955;27;46330;-67
2022/01/02 08:41:28;;;;;;;;;13.00;13.00;;;;;12.44;70.99;101551.75;5077760;27;45411;-67
2022/01/02 08:43:53;;;;;;;;;16.00;13.00;;;;;12.52;70.71;101549.19;5084685;27;45334;-66
2022/01/02 08:46:18;;;;;;;;;11.00;11.00;;;;;12.51;71.21;101546.59;5078177;27;45377;-66
2022/01/02 08:48:44;;;;;;;;;9.67;9.33;;;;;12.43;71.67;101556.34;5087266;27;45336;-66
2022/01/02 08:51:11;;;;;;;;;12.67;12.67;;;;;12.43;71.65;101542.72;5080694;28;45906;-66
2022/01/02 08:53:38;;;;;;;;;12.00;11.67;;;;;12.49;70.80;101549.50;5081326;27;45422;-65
2022/01/02 08:56:03;;;;;;;;;7.67;7.00;;;;;12.49;71.47;101553.06;5080653;27;45606;-65
2022/01/02 08:58:29;;;;;;;;;12.33;8.67;;;;;12.42;71.64;101557.34;5091595;27;46483;-66
2022/01/02 09:00:56;;;;;;;;;14.33;12.00;;;;;12.54;71.61;101546.34;5084643;27;45398;-66
2022/01/02 09:03:22;;;;;;;;;10.33;9.00;;;;;12.49;71.72;101560.41;5093118;27;45597;-66
2022/01/02 09:05:48;;;;;;;;;14.33;10.00;;;;;12.52;72.09;101565.53;5085715;27;45567;-66
2022/01/02 09:08:13;;;;;;;;;10.00;10.00;;;;;12.57;72.12;101562.38;5084360;27;46535;-66
2022/01/02 09:10:38;;;;;;;;;11.00;11.00;;;;;12.59;71.81;101557.66;5086925;27;45314;-66
2022/01/02 09:13:04;;;;;;;;;11.67;8.33;;;;;12.58;71.96;101564.13;5097156;27;45753;-66
2022/01/02 09:15:29;;;;;;;;;12.67;12.67;;;;;12.53;72.30;101582.75;5076355;27;45440;-66
2022/01/02 09:17:54;;;;;;;;;13.33;12.00;;;;;12.58;72.61;101570.44;5084154;27;45707;-66
2022/01/02 09:20:21;;;;;;;;;15.00;12.00;;;;;12.62;72.00;101581.94;5075668;27;45294;-66
2022/01/02 09:22:47;;;;;;;;;15.00;11.67;;;;;12.58;72.43;101581.31;5084650;27;45535;-66
2022/01/02 09:25:12;;;;;;;;;9.00;8.00;;;;;12.54;73.07;101593.53;5075003;27;45279;-66
2022/01/02 09:27:39;;;;;;;;;10.00;10.00;;;;;12.61;72.73;101593.81;5088378;27;48155;-66
2022/01/02 09:30:06;;;;;;;;;13.67;12.67;;;;;12.56;73.05;101597.00;5084864;27;45228;-66
2022/01/02 09:32:34;;;;;;;;;12.33;12.33;;;;;12.61;72.69;101591.09;5083189;27;45469;-66
2022/01/02 09:35:00;;;;;;;;;10.33;9.00;;;;;12.65;72.66;101597.97;5074510;27;45386;-66
2022/01/02 09:37:26;;;;;;;;;10.33;9.00;;;;;12.62;73.06;101598.28;5088692;27;46259;-66
2022/01/02 09:39:51;;;;;;;;;9.00;7.00;;;;;12.64;73.14;101590.84;5074781;27;45368;-66
2022/01/02 09:42:17;;;;;;;;;10.33;10.33;;;;;12.68;72.38;101581.34;5084319;27;45372;-66
2022/01/02 09:44:42;;;;;;;;;13.67;9.00;;;;;12.69;73.01;101583.09;5080986;27;45453;-66
2022/01/02 09:47:09;;;;;;;;;14.00;11.33;;;;;12.69;72.56;101580.34;5091147;27;46186;-67
2022/01/02 09:49:37;;;;;;;;;12.33;10.00;;;;;12.74;72.58;101591.69;5081318;28;46397;-66
2022/01/02 09:52:03;;;;;;;;;14.67;8.00;;;;;12.71;72.71;101581.91;5092831;27;45297;-66
2022/01/02 09:54:28;;;;;;;;;11.67;8.33;;;;;12.70;72.16;101576.63;5082734;27;45628;-66
2022/01/02 09:56:53;;;;;;;;;9.67;9.00;;;;;12.82;72.63;101592.72;5092055;27;45991;-66
2022/01/02 09:59:19;;;;;;;;;11.33;10.00;;;;;12.79;72.65;101587.53;5081125;27;45420;-66
2022/01/02 10:01:44;;;;;;;;;11.00;8.67;;;;;12.81;72.17;101593.72;5083143;27;45535;-66
2022/01/02 10:04:09;;;;;;;;;13.67;10.67;;;;;12.90;72.49;101599.31;5083563;27;45329;-67
2022/01/02 10:06:47;;;;;;;;;11.00;8.00;;;;;12.99;72.33;101604.78;5084273;27;45598;-67
2022/01/02 10:09:29;;;;;;;;;12.00;9.67;;;;;13.02;71.64;101603.63;5092461;27;45846;-73
2022/01/02 10:12:22;;;;;;;;;13.33;11.67;;;;;13.02;72.06;101607.19;5084144;27;45301;-66
2022/01/02 10:15:05;;;;;;;;;9.00;9.00;;;;;13.11;71.83;101605.50;5074874;28;45500;-66
2022/01/02 10:17:50;;;;;;;;;14.33;10.00;;;;;13.21;71.03;101607.25;5083151;28;46343;-66
2022/01/02 10:20:15;;;;;;;;;10.33;8.00;;;;;13.23;71.15;101599.75;5073935;28;45400;-66
2022/01/02 10:23:06;;;;;;;;;6.00;5.33;;;;;13.29;71.04;101598.34;5089158;27;45419;-66
2022/01/02 10:25:44;;;;;;;;;8.33;7.00;;;;;13.49;70.65;101596.44;5079796;28;45334;-66
2022/01/02 10:28:22;;;;;;;;;12.67;9.33;;;;;13.66;69.95;101597.56;5080545;27;46384;-66
2022/01/02 10:30:49;;;;;;;;;13.00;9.00;;;;;13.86;69.34;101605.53;5083877;27;45455;-66
2022/01/02 10:33:15;;;;;;;;;8.00;5.33;;;;;13.85;69.07;101609.28;5078700;27;45417;-66
2022/01/02 10:35:41;;;;;;;;;10.00;9.00;;;;;13.92;68.76;101602.22;5072551;28;45524;-66
2022/01/02 10:38:14;;;;;;;;;7.00;7.00;;;;;14.06;68.17;101610.94;5089400;27;45955;-65
2022/01/02 10:40:40;;;;;;;;;12.00;10.00;;;;;14.17;68.59;101606.13;5076226;28;45327;-64
2022/01/02 10:43:08;;;;;;;;;8.33;8.33;;;;;14.21;68.23;101606.69;5082209;27;45515;-68
2022/01/02 10:45:39;;;;;;;;;9.33;7.33;;;;;14.38;67.80;101603.19;5074091;27;45511;-69
2022/01/02 10:48:08;;;;;;;;;6.33;5.67;;;;;14.33;67.56;101597.25;5095288;27;45186;-66
2022/01/02 10:50:34;;;;;;;;;8.67;6.67;;;;;14.38;67.30;101593.13;5072665;27;45471;-65
2022/01/02 10:53:15;;;;;;;;;5.33;5.33;;;;;14.52;67.24;101596.34;5082911;27;45858;-65
2022/01/02 10:55:44;;;;;;;;;5.00;5.00;;;;;14.52;66.61;101594.47;5075888;27;45409;-66
2022/01/02 10:58:10;;;;;;;;;6.33;5.00;;;;;14.62;67.12;101594.38;5093903;27;45381;-66
2022/01/02 11:00:37;;;;;;;;;4.00;4.00;;;;;14.62;66.80;101608.94;5079141;27;45360;-66
2022/01/02 11:03:05;;;;;;;;;7.00;4.00;;;;;14.65;66.84;101599.56;5095668;27;45384;-66
2022/01/02 11:05:31;;;;;;;;;7.00;4.00;;;;;14.74;66.40;101585.84;5083733;27;45479;-67
2022/01/02 11:08:00;;;;;;;;;2.67;2.00;;;;;14.79;65.87;101607.25;5082443;27;46210;-66
2022/01/02 11:10:31;;;;;;;;;4.33;4.00;;;;;14.76;65.93;101604.78;5083129;27;45444;-67
2022/01/02 11:12:57;;;;;;;;;7.67;6.33;;;;;14.76;66.11;101611.13;5096416;27;45463;-67
2022/01/02 11:15:24;;;;;;;;;4.33;3.67;;;;;14.81;65.58;101607.94;5073227;27;45270;-67
2022/01/02 11:17:50;;;;;;;;;3.00;3.00;;;;;14.75;65.45;101601.22;5082454;27;45393;-66
2022/01/02 11:20:28;;;;;;;;;5.33;4.00;;;;;14.84;66.05;101593.09;5090338;27;45407;-67